sensor_id;sensor_type;location;lat;lon;timestamp;P1;durP1;ratioP1;P2;durP2;ratioP2
56427;SDS011;42331;53.578;9.760;2023-02-12T00:00:57;12.40;;;4.95;;
56427;SDS011;42331;53.578;9.760;2023-02-12T00:03:28;12.32;;;5.22;;
56427;SDS011;42331;53.578;9.760;2023-02-12T00:05:59;12.50;;;4.60;;
56427;SDS011;42331;53.578;9.760;2023-02-12T00:11:12;10.98;;;3.50;;
56427;SDS011;42331;53.578;9.760;2023-02-12T00:13:45;9.02;;;3.25;;
56427;SDS011;42331;53.578;9.760;2023-02-12T00:16:17;5.53;;;2.80;;
56427;SDS011;42331;53.578;9.760;2023-02-12T00:18:50;6.75;;;2.60;;
56427;SDS011;42331;53.578;9.760;2023-02-12T00:21:23;6.75;;;2.80;;
56427;SDS011;42331;53.578;9.760;2023-02-12T00:23:54;7.47;;;2.50;;
56427;SDS011;42331;53.578;9.760;2023-02-12T00:26:25;5.90;;;2.70;;
56427;SDS011;42331;53.578;9.760;2023-02-12T00:28:56;5.22;;;2.33;;
56427;SDS011;42331;53.578;9.760;2023-02-12T00:31:28;7.60;;;2.50;;
56427;SDS011;42331;53.578;9.760;2023-02-12T00:34:00;6.70;;;2.60;;
56427;SDS011;42331;53.578;9.760;2023-02-12T00:36:31;3.45;;;1.58;;
56427;SDS011;42331;53.578;9.760;2023-02-12T00:39:02;8.02;;;2.50;;
56427;SDS011;42331;53.578;9.760;2023-02-12T00:41:33;5.43;;;2.80;;
56427;SDS011;42331;53.578;9.760;2023-02-12T00:44:04;6.75;;;2.65;;
56427;SDS011;42331;53.578;9.760;2023-02-12T00:46:34;5.63;;;2.55;;
56427;SDS011;42331;53.578;9.760;2023-02-12T00:49:05;4.90;;;2.60;;
56427;SDS011;42331;53.578;9.760;2023-02-12T00:51:35;6.75;;;2.60;;
56427;SDS011;42331;53.578;9.760;2023-02-12T00:54:06;5.72;;;2.78;;
56427;SDS011;42331;53.578;9.760;2023-02-12T00:56:37;5.70;;;2.63;;
56427;SDS011;42331;53.578;9.760;2023-02-12T00:59:07;5.55;;;2.58;;
56427;SDS011;42331;53.578;9.760;2023-02-12T01:01:38;6.70;;;2.92;;
56427;SDS011;42331;53.578;9.760;2023-02-12T01:04:09;7.55;;;2.80;;
56427;SDS011;42331;53.578;9.760;2023-02-12T01:06:40;6.97;;;3.13;;
56427;SDS011;42331;53.578;9.760;2023-02-12T01:09:11;7.70;;;3.00;;
56427;SDS011;42331;53.578;9.760;2023-02-12T01:11:42;5.82;;;2.53;;
56427;SDS011;42331;53.578;9.760;2023-02-12T01:14:13;6.88;;;3.03;;
56427;SDS011;42331;53.578;9.760;2023-02-12T01:16:44;6.28;;;2.30;;
56427;SDS011;42331;53.578;9.760;2023-02-12T01:19:14;4.80;;;2.00;;
56427;SDS011;42331;53.578;9.760;2023-02-12T01:21:45;4.65;;;2.22;;
56427;SDS011;42331;53.578;9.760;2023-02-12T01:24:16;6.72;;;2.50;;
56427;SDS011;42331;53.578;9.760;2023-02-12T01:26:47;7.82;;;2.97;;
56427;SDS011;42331;53.578;9.760;2023-02-12T01:29:18;6.32;;;2.65;;
56427;SDS011;42331;53.578;9.760;2023-02-12T01:31:48;5.85;;;1.88;;
56427;SDS011;42331;53.578;9.760;2023-02-12T01:34:19;6.80;;;2.65;;
56427;SDS011;42331;53.578;9.760;2023-02-12T01:36:50;7.05;;;2.22;;
56427;SDS011;42331;53.578;9.760;2023-02-12T01:39:20;6.75;;;2.10;;
56427;SDS011;42331;53.578;9.760;2023-02-12T01:41:51;5.80;;;2.00;;
56427;SDS011;42331;53.578;9.760;2023-02-12T01:44:23;6.70;;;2.47;;
56427;SDS011;42331;53.578;9.760;2023-02-12T01:46:59;6.32;;;2.00;;
56427;SDS011;42331;53.578;9.760;2023-02-12T01:49:36;6.82;;;2.40;;
56427;SDS011;42331;53.578;9.760;2023-02-12T01:52:19;6.13;;;2.28;;
56427;SDS011;42331;53.578;9.760;2023-02-12T01:54:54;6.68;;;2.22;;
56427;SDS011;42331;53.578;9.760;2023-02-12T01:57:30;5.85;;;2.17;;
56427;SDS011;42331;53.578;9.760;2023-02-12T02:00:04;5.07;;;1.75;;
56427;SDS011;42331;53.578;9.760;2023-02-12T02:02:38;4.93;;;2.00;;
56427;SDS011;42331;53.578;9.760;2023-02-12T02:05:09;4.10;;;2.03;;
56427;SDS011;42331;53.578;9.760;2023-02-12T02:07:44;3.97;;;1.98;;
56427;SDS011;42331;53.578;9.760;2023-02-12T02:10:15;4.15;;;1.88;;
56427;SDS011;42331;53.578;9.760;2023-02-12T02:12:46;3.72;;;1.70;;
56427;SDS011;42331;53.578;9.760;2023-02-12T02:15:36;5.53;;;1.83;;
56427;SDS011;42331;53.578;9.760;2023-02-12T02:18:11;5.55;;;1.60;;
56427;SDS011;42331;53.578;9.760;2023-02-12T02:26:53;6.07;;;1.70;;
56427;SDS011;42331;53.578;9.760;2023-02-12T02:32:42;3.53;;;1.65;;
56427;SDS011;42331;53.578;9.760;2023-02-12T02:35:20;5.53;;;2.00;;
56427;SDS011;42331;53.578;9.760;2023-02-12T02:38:17;4.03;;;2.10;;
56427;SDS011;42331;53.578;9.760;2023-02-12T02:41:05;4.65;;;1.92;;
56427;SDS011;42331;53.578;9.760;2023-02-12T02:43:47;10.07;;;2.60;;
56427;SDS011;42331;53.578;9.760;2023-02-12T02:48:57;7.00;;;2.78;;
56427;SDS011;42331;53.578;9.760;2023-02-12T02:51:32;6.18;;;2.50;;
56427;SDS011;42331;53.578;9.760;2023-02-12T02:54:07;5.07;;;2.00;;
56427;SDS011;42331;53.578;9.760;2023-02-12T02:57:14;8.25;;;2.50;;
56427;SDS011;42331;53.578;9.760;2023-02-12T02:59:54;10.10;;;2.70;;
56427;SDS011;42331;53.578;9.760;2023-02-12T03:02:37;11.27;;;2.90;;
56427;SDS011;42331;53.578;9.760;2023-02-12T03:05:19;10.32;;;2.63;;
56427;SDS011;42331;53.578;9.760;2023-02-12T03:07:57;9.25;;;2.80;;
56427;SDS011;42331;53.578;9.760;2023-02-12T03:10:33;10.65;;;2.70;;
56427;SDS011;42331;53.578;9.760;2023-02-12T03:13:13;11.00;;;3.20;;
56427;SDS011;42331;53.578;9.760;2023-02-12T03:15:57;8.18;;;2.92;;
56427;SDS011;42331;53.578;9.760;2023-02-12T03:18:50;13.70;;;2.90;;
56427;SDS011;42331;53.578;9.760;2023-02-12T03:22:09;15.07;;;3.10;;
56427;SDS011;42331;53.578;9.760;2023-02-12T03:24:55;17.75;;;3.80;;
56427;SDS011;42331;53.578;9.760;2023-02-12T03:30:03;11.10;;;3.15;;
56427;SDS011;42331;53.578;9.760;2023-02-12T03:35:30;9.75;;;3.42;;
56427;SDS011;42331;53.578;9.760;2023-02-12T03:41:04;12.68;;;3.65;;
56427;SDS011;42331;53.578;9.760;2023-02-12T03:46:54;17.63;;;4.22;;
56427;SDS011;42331;53.578;9.760;2023-02-12T03:52:04;12.70;;;4.10;;
56427;SDS011;42331;53.578;9.760;2023-02-12T03:54:35;17.00;;;4.68;;
56427;SDS011;42331;53.578;9.760;2023-02-12T03:57:07;14.93;;;5.53;;
56427;SDS011;42331;53.578;9.760;2023-02-12T03:59:41;22.17;;;5.80;;
56427;SDS011;42331;53.578;9.760;2023-02-12T04:02:13;21.00;;;5.60;;
56427;SDS011;42331;53.578;9.760;2023-02-12T04:04:46;20.08;;;7.00;;
56427;SDS011;42331;53.578;9.760;2023-02-12T04:07:19;20.67;;;7.03;;
56427;SDS011;42331;53.578;9.760;2023-02-12T04:09:50;24.40;;;6.75;;
56427;SDS011;42331;53.578;9.760;2023-02-12T04:29:10;40.55;;;11.50;;
56427;SDS011;42331;53.578;9.760;2023-02-12T04:32:03;50.40;;;12.15;;
56427;SDS011;42331;53.578;9.760;2023-02-12T04:42:29;37.47;;;12.03;;
56427;SDS011;42331;53.578;9.760;2023-02-12T04:45:00;46.72;;;12.95;;
56427;SDS011;42331;53.578;9.760;2023-02-12T04:47:31;40.92;;;12.50;;
56427;SDS011;42331;53.578;9.760;2023-02-12T04:50:02;49.75;;;12.07;;
56427;SDS011;42331;53.578;9.760;2023-02-12T04:52:33;75.45;;;13.10;;
56427;SDS011;42331;53.578;9.760;2023-02-12T04:55:04;46.38;;;8.45;;
56427;SDS011;42331;53.578;9.760;2023-02-12T04:57:34;60.15;;;11.77;;
56427;SDS011;42331;53.578;9.760;2023-02-12T05:00:06;33.47;;;10.90;;
56427;SDS011;42331;53.578;9.760;2023-02-12T05:02:40;40.72;;;10.80;;
56427;SDS011;42331;53.578;9.760;2023-02-12T05:05:11;40.65;;;9.88;;
56427;SDS011;42331;53.578;9.760;2023-02-12T05:07:42;47.03;;;9.27;;
56427;SDS011;42331;53.578;9.760;2023-02-12T05:10:13;18.27;;;6.38;;
56427;SDS011;42331;53.578;9.760;2023-02-12T05:12:43;63.40;;;9.95;;
56427;SDS011;42331;53.578;9.760;2023-02-12T05:15:14;41.28;;;9.35;;
56427;SDS011;42331;53.578;9.760;2023-02-12T05:17:45;37.80;;;9.05;;
56427;SDS011;42331;53.578;9.760;2023-02-12T05:20:16;39.00;;;10.05;;
56427;SDS011;42331;53.578;9.760;2023-02-12T05:22:50;31.63;;;9.10;;
56427;SDS011;42331;53.578;9.760;2023-02-12T05:25:22;31.95;;;8.35;;
56427;SDS011;42331;53.578;9.760;2023-02-12T05:27:53;30.30;;;8.50;;
56427;SDS011;42331;53.578;9.760;2023-02-12T05:30:25;46.53;;;8.75;;
56427;SDS011;42331;53.578;9.760;2023-02-12T05:32:56;35.55;;;8.38;;
56427;SDS011;42331;53.578;9.760;2023-02-12T05:35:27;33.03;;;8.50;;
56427;SDS011;42331;53.578;9.760;2023-02-12T05:37:58;36.22;;;9.27;;
56427;SDS011;42331;53.578;9.760;2023-02-12T05:40:29;30.00;;;9.35;;
56427;SDS011;42331;53.578;9.760;2023-02-12T05:43:00;43.58;;;8.93;;
56427;SDS011;42331;53.578;9.760;2023-02-12T05:45:32;79.97;;;10.20;;
56427;SDS011;42331;53.578;9.760;2023-02-12T05:48:03;39.63;;;9.77;;
56427;SDS011;42331;53.578;9.760;2023-02-12T05:50:36;58.53;;;10.32;;
56427;SDS011;42331;53.578;9.760;2023-02-12T05:53:09;35.67;;;9.23;;
56427;SDS011;42331;53.578;9.760;2023-02-12T05:55:40;81.57;;;10.23;;
56427;SDS011;42331;53.578;9.760;2023-02-12T05:58:11;75.30;;;9.55;;
56427;SDS011;42331;53.578;9.760;2023-02-12T06:00:42;38.72;;;10.48;;
56427;SDS011;42331;53.578;9.760;2023-02-12T06:03:12;56.33;;;9.00;;
56427;SDS011;42331;53.578;9.760;2023-02-12T06:05:48;37.80;;;9.18;;
56427;SDS011;42331;53.578;9.760;2023-02-12T06:08:20;56.67;;;10.52;;
56427;SDS011;42331;53.578;9.760;2023-02-12T06:10:51;29.73;;;7.85;;
56427;SDS011;42331;53.578;9.760;2023-02-12T06:13:22;87.28;;;10.80;;
56427;SDS011;42331;53.578;9.760;2023-02-12T06:18:25;43.95;;;10.43;;
56427;SDS011;42331;53.578;9.760;2023-02-12T06:20:56;90.35;;;11.23;;
56427;SDS011;42331;53.578;9.760;2023-02-12T06:23:27;43.13;;;10.13;;
56427;SDS011;42331;53.578;9.760;2023-02-12T06:25:58;61.90;;;10.25;;
56427;SDS011;42331;53.578;9.760;2023-02-12T06:28:29;35.60;;;9.82;;
56427;SDS011;42331;53.578;9.760;2023-02-12T06:31:00;79.13;;;12.40;;
56427;SDS011;42331;53.578;9.760;2023-02-12T06:33:31;59.83;;;12.30;;
56427;SDS011;42331;53.578;9.760;2023-02-12T06:36:04;97.05;;;12.02;;
56427;SDS011;42331;53.578;9.760;2023-02-12T06:38:36;41.05;;;10.25;;
56427;SDS011;42331;53.578;9.760;2023-02-12T06:41:07;61.10;;;10.27;;
56427;SDS011;42331;53.578;9.760;2023-02-12T06:43:37;29.85;;;8.20;;
56427;SDS011;42331;53.578;9.760;2023-02-12T06:46:09;46.63;;;11.27;;
56427;SDS011;42331;53.578;9.760;2023-02-12T06:48:40;60.85;;;11.80;;
56427;SDS011;42331;53.578;9.760;2023-02-12T06:51:13;106.05;;;12.60;;
56427;SDS011;42331;53.578;9.760;2023-02-12T06:53:46;76.43;;;11.90;;
56427;SDS011;42331;53.578;9.760;2023-02-12T06:56:17;82.57;;;11.68;;
56427;SDS011;42331;53.578;9.760;2023-02-12T06:58:54;49.00;;;10.60;;
56427;SDS011;42331;53.578;9.760;2023-02-12T07:01:28;120.85;;;12.82;;
56427;SDS011;42331;53.578;9.760;2023-02-12T07:04:01;48.95;;;11.68;;
56427;SDS011;42331;53.578;9.760;2023-02-12T07:06:33;97.50;;;13.65;;
56427;SDS011;42331;53.578;9.760;2023-02-12T07:09:04;124.82;;;13.57;;
56427;SDS011;42331;53.578;9.760;2023-02-12T07:11:35;85.93;;;12.57;;
56427;SDS011;42331;53.578;9.760;2023-02-12T07:14:06;93.85;;;15.32;;
56427;SDS011;42331;53.578;9.760;2023-02-12T07:16:37;91.18;;;12.77;;
56427;SDS011;42331;53.578;9.760;2023-02-12T07:19:09;188.27;;;17.00;;
56427;SDS011;42331;53.578;9.760;2023-02-12T07:21:42;95.03;;;13.32;;
56427;SDS011;42331;53.578;9.760;2023-02-12T07:24:13;137.05;;;17.60;;
56427;SDS011;42331;53.578;9.760;2023-02-12T07:26:44;99.05;;;16.40;;
56427;SDS011;42331;53.578;9.760;2023-02-12T07:29:15;123.20;;;18.85;;
56427;SDS011;42331;53.578;9.760;2023-02-12T07:31:46;81.80;;;16.48;;
56427;SDS011;42331;53.578;9.760;2023-02-12T07:34:17;129.85;;;18.70;;
56427;SDS011;42331;53.578;9.760;2023-02-12T07:36:47;78.32;;;17.02;;
56427;SDS011;42331;53.578;9.760;2023-02-12T07:39:18;130.00;;;18.52;;
56427;SDS011;42331;53.578;9.760;2023-02-12T07:41:49;70.97;;;13.73;;
56427;SDS011;42331;53.578;9.760;2023-02-12T07:44:20;67.15;;;18.20;;
56427;SDS011;42331;53.578;9.760;2023-02-12T07:46:50;99.97;;;19.73;;
56427;SDS011;42331;53.578;9.760;2023-02-12T07:49:21;75.20;;;20.88;;
56427;SDS011;42331;53.578;9.760;2023-02-12T07:51:51;68.05;;;18.95;;
56427;SDS011;42331;53.578;9.760;2023-02-12T07:54:24;111.68;;;19.90;;
56427;SDS011;42331;53.578;9.760;2023-02-12T07:56:55;99.00;;;21.58;;
56427;SDS011;42331;53.578;9.760;2023-02-12T07:59:26;68.43;;;19.42;;
56427;SDS011;42331;53.578;9.760;2023-02-12T08:01:57;78.82;;;19.83;;
56427;SDS011;42331;53.578;9.760;2023-02-12T08:04:29;81.13;;;20.45;;
56427;SDS011;42331;53.578;9.760;2023-02-12T08:07:00;71.05;;;19.35;;
56427;SDS011;42331;53.578;9.760;2023-02-12T08:09:31;66.82;;;20.23;;
56427;SDS011;42331;53.578;9.760;2023-02-12T08:12:02;89.65;;;21.27;;
56427;SDS011;42331;53.578;9.760;2023-02-12T08:14:33;63.38;;;19.70;;
56427;SDS011;42331;53.578;9.760;2023-02-12T08:17:03;50.45;;;14.80;;
56427;SDS011;42331;53.578;9.760;2023-02-12T08:19:34;60.78;;;18.95;;
56427;SDS011;42331;53.578;9.760;2023-02-12T08:22:05;70.47;;;19.35;;
56427;SDS011;42331;53.578;9.760;2023-02-12T08:24:36;64.37;;;19.17;;
56427;SDS011;42331;53.578;9.760;2023-02-12T08:27:07;67.95;;;20.35;;
56427;SDS011;42331;53.578;9.760;2023-02-12T08:29:37;61.65;;;19.55;;
56427;SDS011;42331;53.578;9.760;2023-02-12T08:32:08;64.43;;;19.45;;
56427;SDS011;42331;53.578;9.760;2023-02-12T08:34:42;68.00;;;19.45;;
56427;SDS011;42331;53.578;9.760;2023-02-12T08:37:13;63.92;;;19.77;;
56427;SDS011;42331;53.578;9.760;2023-02-12T08:39:44;58.13;;;19.83;;
56427;SDS011;42331;53.578;9.760;2023-02-12T08:42:15;59.78;;;18.85;;
56427;SDS011;42331;53.578;9.760;2023-02-12T08:44:45;60.95;;;20.15;;
56427;SDS011;42331;53.578;9.760;2023-02-12T08:47:16;57.20;;;19.17;;
56427;SDS011;42331;53.578;9.760;2023-02-12T08:49:47;63.20;;;19.38;;
56427;SDS011;42331;53.578;9.760;2023-02-12T08:52:17;60.58;;;19.52;;
56427;SDS011;42331;53.578;9.760;2023-02-12T08:54:48;38.72;;;13.75;;
56427;SDS011;42331;53.578;9.760;2023-02-12T08:57:19;52.40;;;18.13;;
56427;SDS011;42331;53.578;9.760;2023-02-12T08:59:51;54.80;;;17.63;;
56427;SDS011;42331;53.578;9.760;2023-02-12T09:02:22;49.35;;;16.83;;
56427;SDS011;42331;53.578;9.760;2023-02-12T09:04:53;48.80;;;16.55;;
56427;SDS011;42331;53.578;9.760;2023-02-12T09:07:23;57.00;;;18.05;;
56427;SDS011;42331;53.578;9.760;2023-02-12T09:09:54;52.53;;;17.38;;
56427;SDS011;42331;53.578;9.760;2023-02-12T09:12:25;52.60;;;17.23;;
56427;SDS011;42331;53.578;9.760;2023-02-12T09:14:55;57.60;;;17.33;;
56427;SDS011;42331;53.578;9.760;2023-02-12T09:17:29;61.88;;;18.75;;
56427;SDS011;42331;53.578;9.760;2023-02-12T09:19:59;53.85;;;18.33;;
56427;SDS011;42331;53.578;9.760;2023-02-12T09:22:31;60.38;;;19.27;;
56427;SDS011;42331;53.578;9.760;2023-02-12T09:25:01;53.50;;;17.73;;
56427;SDS011;42331;53.578;9.760;2023-02-12T09:27:33;47.97;;;17.08;;
56427;SDS011;42331;53.578;9.760;2023-02-12T09:30:04;49.72;;;17.70;;
56427;SDS011;42331;53.578;9.760;2023-02-12T09:32:35;53.30;;;17.88;;
56427;SDS011;42331;53.578;9.760;2023-02-12T09:35:05;54.42;;;17.20;;
56427;SDS011;42331;53.578;9.760;2023-02-12T09:37:36;52.40;;;17.95;;
56427;SDS011;42331;53.578;9.760;2023-02-12T09:40:09;45.78;;;17.70;;
56427;SDS011;42331;53.578;9.760;2023-02-12T09:45:29;49.00;;;16.92;;
56427;SDS011;42331;53.578;9.760;2023-02-12T09:48:20;48.67;;;16.92;;
56427;SDS011;42331;53.578;9.760;2023-02-12T09:51:15;44.47;;;16.42;;
56427;SDS011;42331;53.578;9.760;2023-02-12T09:53:46;42.55;;;15.60;;
56427;SDS011;42331;53.578;9.760;2023-02-12T09:56:22;41.17;;;16.38;;
56427;SDS011;42331;53.578;9.760;2023-02-12T09:58:59;48.65;;;17.25;;
56427;SDS011;42331;53.578;9.760;2023-02-12T10:01:33;45.47;;;16.23;;
56427;SDS011;42331;53.578;9.760;2023-02-12T10:04:06;45.67;;;16.25;;
56427;SDS011;42331;53.578;9.760;2023-02-12T10:10:13;44.92;;;16.58;;
56427;SDS011;42331;53.578;9.760;2023-02-12T10:13:10;43.42;;;16.33;;
56427;SDS011;42331;53.578;9.760;2023-02-12T10:32:32;38.17;;;14.57;;
56427;SDS011;42331;53.578;9.760;2023-02-12T10:35:13;31.45;;;15.10;;
56427;SDS011;42331;53.578;9.760;2023-02-12T10:38:21;40.33;;;14.38;;
56427;SDS011;42331;53.578;9.760;2023-02-12T10:40:56;31.00;;;12.98;;
56427;SDS011;42331;53.578;9.760;2023-02-12T10:43:31;35.05;;;14.52;;
56427;SDS011;42331;53.578;9.760;2023-02-12T10:46:02;31.75;;;13.05;;
56427;SDS011;42331;53.578;9.760;2023-02-12T10:48:37;27.10;;;13.07;;
56427;SDS011;42331;53.578;9.760;2023-02-12T10:51:15;29.13;;;13.88;;
56427;SDS011;42331;53.578;9.760;2023-02-12T10:53:56;34.03;;;13.82;;
56427;SDS011;42331;53.578;9.760;2023-02-12T10:56:29;35.10;;;14.48;;
56427;SDS011;42331;53.578;9.760;2023-02-12T10:58:59;37.95;;;14.93;;
56427;SDS011;42331;53.578;9.760;2023-02-12T11:01:32;29.17;;;14.00;;
56427;SDS011;42331;53.578;9.760;2023-02-12T11:07:03;40.33;;;15.05;;
56427;SDS011;42331;53.578;9.760;2023-02-12T11:09:40;32.38;;;15.68;;
56427;SDS011;42331;53.578;9.760;2023-02-12T11:12:20;32.30;;;14.10;;
56427;SDS011;42331;53.578;9.760;2023-02-12T11:15:12;40.30;;;15.07;;
56427;SDS011;42331;53.578;9.760;2023-02-12T11:17:59;43.03;;;15.70;;
56427;SDS011;42331;53.578;9.760;2023-02-12T11:20:38;39.05;;;14.73;;
56427;SDS011;42331;53.578;9.760;2023-02-12T11:23:28;39.10;;;15.20;;
56427;SDS011;42331;53.578;9.760;2023-02-12T11:26:01;34.03;;;14.07;;
56427;SDS011;42331;53.578;9.760;2023-02-12T11:28:35;39.72;;;13.45;;
56427;SDS011;42331;53.578;9.760;2023-02-12T11:33:42;35.85;;;14.63;;
56427;SDS011;42331;53.578;9.760;2023-02-12T11:36:24;34.95;;;13.93;;
56427;SDS011;42331;53.578;9.760;2023-02-12T11:41:33;30.15;;;12.70;;
56427;SDS011;42331;53.578;9.760;2023-02-12T11:47:03;32.80;;;14.68;;
56427;SDS011;42331;53.578;9.760;2023-02-12T11:49:40;35.88;;;14.88;;
56427;SDS011;42331;53.578;9.760;2023-02-12T11:52:19;35.47;;;14.82;;
56427;SDS011;42331;53.578;9.760;2023-02-12T11:54:55;34.13;;;14.98;;
56427;SDS011;42331;53.578;9.760;2023-02-12T12:03:01;39.65;;;15.35;;
56427;SDS011;42331;53.578;9.760;2023-02-12T12:08:56;39.92;;;16.00;;
56427;SDS011;42331;53.578;9.760;2023-02-12T12:11:39;37.58;;;14.75;;
56427;SDS011;42331;53.578;9.760;2023-02-12T12:17:02;26.90;;;12.45;;
56427;SDS011;42331;53.578;9.760;2023-02-12T12:20:00;27.20;;;13.18;;
56427;SDS011;42331;53.578;9.760;2023-02-12T12:22:41;32.42;;;12.93;;
56427;SDS011;42331;53.578;9.760;2023-02-12T12:30:59;28.55;;;11.75;;
56427;SDS011;42331;53.578;9.760;2023-02-12T12:41:46;22.40;;;11.05;;
56427;SDS011;42331;53.578;9.760;2023-02-12T12:50:08;15.85;;;8.00;;
56427;SDS011;42331;53.578;9.760;2023-02-12T12:53:03;14.10;;;7.68;;
56427;SDS011;42331;53.578;9.760;2023-02-12T12:58:59;14.65;;;7.53;;
56427;SDS011;42331;53.578;9.760;2023-02-12T13:12:52;18.35;;;10.43;;
56427;SDS011;42331;53.578;9.760;2023-02-12T13:23:49;18.55;;;9.38;;
56427;SDS011;42331;53.578;9.760;2023-02-12T13:26:29;20.52;;;9.35;;
56427;SDS011;42331;53.578;9.760;2023-02-12T13:29:08;17.65;;;8.85;;
56427;SDS011;42331;53.578;9.760;2023-02-12T13:31:53;20.25;;;9.60;;
56427;SDS011;42331;53.578;9.760;2023-02-12T13:34:28;20.92;;;10.02;;
56427;SDS011;42331;53.578;9.760;2023-02-12T13:37:02;19.60;;;9.68;;
56427;SDS011;42331;53.578;9.760;2023-02-12T13:39:36;17.88;;;8.93;;
56427;SDS011;42331;53.578;9.760;2023-02-12T13:42:14;18.67;;;10.27;;
56427;SDS011;42331;53.578;9.760;2023-02-12T13:45:13;17.10;;;8.80;;
56427;SDS011;42331;53.578;9.760;2023-02-12T14:04:42;23.80;;;10.82;;
56427;SDS011;42331;53.578;9.760;2023-02-12T14:07:45;22.33;;;11.20;;
56427;SDS011;42331;53.578;9.760;2023-02-12T14:10:21;24.08;;;11.93;;
56427;SDS011;42331;53.578;9.760;2023-02-12T14:13:07;25.58;;;12.38;;
56427;SDS011;42331;53.578;9.760;2023-02-12T14:15:52;24.20;;;12.07;;
56427;SDS011;42331;53.578;9.760;2023-02-12T14:18:28;23.67;;;11.82;;
56427;SDS011;42331;53.578;9.760;2023-02-12T14:21:44;18.80;;;9.88;;
56427;SDS011;42331;53.578;9.760;2023-02-12T14:24:21;21.02;;;10.07;;
56427;SDS011;42331;53.578;9.760;2023-02-12T14:37:56;20.67;;;9.35;;
56427;SDS011;42331;53.578;9.760;2023-02-12T14:40:53;16.73;;;8.48;;
56427;SDS011;42331;53.578;9.760;2023-02-12T14:46:57;17.45;;;8.38;;
56427;SDS011;42331;53.578;9.760;2023-02-12T14:49:35;16.92;;;8.60;;
56427;SDS011;42331;53.578;9.760;2023-02-12T14:52:21;15.15;;;7.88;;
56427;SDS011;42331;53.578;9.760;2023-02-12T14:55:00;14.82;;;7.70;;
56427;SDS011;42331;53.578;9.760;2023-02-12T14:57:37;15.75;;;7.32;;
56427;SDS011;42331;53.578;9.760;2023-02-12T15:02:50;13.43;;;7.15;;
56427;SDS011;42331;53.578;9.760;2023-02-12T15:05:25;12.32;;;6.30;;
56427;SDS011;42331;53.578;9.760;2023-02-12T15:08:02;11.90;;;6.38;;
56427;SDS011;42331;53.578;9.760;2023-02-12T15:10:58;10.05;;;5.95;;
56427;SDS011;42331;53.578;9.760;2023-02-12T15:13:46;10.55;;;5.72;;
56427;SDS011;42331;53.578;9.760;2023-02-12T15:22:19;11.13;;;6.03;;
56427;SDS011;42331;53.578;9.760;2023-02-12T15:24:54;9.43;;;5.25;;
56427;SDS011;42331;53.578;9.760;2023-02-12T15:27:43;9.02;;;4.80;;
56427;SDS011;42331;53.578;9.760;2023-02-12T15:31:00;8.73;;;4.97;;
56427;SDS011;42331;53.578;9.760;2023-02-12T15:33:18;8.73;;;4.93;;
56427;SDS011;42331;53.578;9.760;2023-02-12T15:35:55;8.27;;;5.13;;
56427;SDS011;42331;53.578;9.760;2023-02-12T15:38:32;8.27;;;5.25;;
56427;SDS011;42331;53.578;9.760;2023-02-12T15:41:21;7.33;;;4.20;;
56427;SDS011;42331;53.578;9.760;2023-02-12T15:43:59;7.75;;;5.28;;
56427;SDS011;42331;53.578;9.760;2023-02-12T15:46:32;6.47;;;3.95;;
56427;SDS011;42331;53.578;9.760;2023-02-12T15:49:16;5.95;;;4.25;;
56427;SDS011;42331;53.578;9.760;2023-02-12T15:51:48;6.43;;;4.38;;
56427;SDS011;42331;53.578;9.760;2023-02-12T15:54:19;7.88;;;4.22;;
56427;SDS011;42331;53.578;9.760;2023-02-12T15:56:50;5.85;;;4.20;;
56427;SDS011;42331;53.578;9.760;2023-02-12T15:59:25;7.40;;;4.82;;
56427;SDS011;42331;53.578;9.760;2023-02-12T16:01:58;6.05;;;3.88;;
56427;SDS011;42331;53.578;9.760;2023-02-12T16:04:33;6.03;;;4.15;;
56427;SDS011;42331;53.578;9.760;2023-02-12T16:07:06;7.32;;;4.47;;
56427;SDS011;42331;53.578;9.760;2023-02-12T16:09:38;7.20;;;4.25;;
56427;SDS011;42331;53.578;9.760;2023-02-12T16:12:12;6.38;;;4.10;;
56427;SDS011;42331;53.578;9.760;2023-02-12T16:14:50;6.97;;;4.30;;
56427;SDS011;42331;53.578;9.760;2023-02-12T16:19:55;6.38;;;4.43;;
56427;SDS011;42331;53.578;9.760;2023-02-12T16:22:38;7.40;;;4.55;;
56427;SDS011;42331;53.578;9.760;2023-02-12T16:27:58;7.25;;;4.95;;
56427;SDS011;42331;53.578;9.760;2023-02-12T16:30:34;7.15;;;4.13;;
56427;SDS011;42331;53.578;9.760;2023-02-12T16:36:01;9.35;;;4.32;;
56427;SDS011;42331;53.578;9.760;2023-02-12T16:38:38;5.75;;;3.90;;
56427;SDS011;42331;53.578;9.760;2023-02-12T16:43:50;7.18;;;4.53;;
56427;SDS011;42331;53.578;9.760;2023-02-12T16:49:59;6.45;;;4.25;;
56427;SDS011;42331;53.578;9.760;2023-02-12T16:55:15;9.20;;;5.53;;
56427;SDS011;42331;53.578;9.760;2023-02-12T16:57:49;9.55;;;6.35;;
56427;SDS011;42331;53.578;9.760;2023-02-12T17:00:20;8.90;;;6.15;;
56427;SDS011;42331;53.578;9.760;2023-02-12T17:05:24;8.35;;;5.30;;
56427;SDS011;42331;53.578;9.760;2023-02-12T17:07:55;10.50;;;5.88;;
56427;SDS011;42331;53.578;9.760;2023-02-12T17:10:26;11.98;;;6.55;;
56427;SDS011;42331;53.578;9.760;2023-02-12T17:12:56;9.15;;;5.75;;
56427;SDS011;42331;53.578;9.760;2023-02-12T17:15:29;12.02;;;6.47;;
56427;SDS011;42331;53.578;9.760;2023-02-12T17:18:05;14.10;;;7.18;;
56427;SDS011;42331;53.578;9.760;2023-02-12T17:20:37;10.35;;;6.55;;
56427;SDS011;42331;53.578;9.760;2023-02-12T17:23:08;13.37;;;7.40;;
56427;SDS011;42331;53.578;9.760;2023-02-12T17:25:39;9.95;;;6.55;;
56427;SDS011;42331;53.578;9.760;2023-02-12T17:28:10;11.07;;;7.25;;
56427;SDS011;42331;53.578;9.760;2023-02-12T17:30:41;10.27;;;6.95;;
56427;SDS011;42331;53.578;9.760;2023-02-12T17:33:12;11.57;;;6.85;;
56427;SDS011;42331;53.578;9.760;2023-02-12T17:35:43;13.48;;;6.65;;
56427;SDS011;42331;53.578;9.760;2023-02-12T17:38:14;11.27;;;7.18;;
56427;SDS011;42331;53.578;9.760;2023-02-12T17:40:45;9.18;;;5.18;;
56427;SDS011;42331;53.578;9.760;2023-02-12T17:43:17;13.82;;;8.60;;
56427;SDS011;42331;53.578;9.760;2023-02-12T17:45:47;14.90;;;9.10;;
56427;SDS011;42331;53.578;9.760;2023-02-12T17:48:19;13.25;;;9.23;;
56427;SDS011;42331;53.578;9.760;2023-02-12T17:50:53;13.43;;;9.35;;
56427;SDS011;42331;53.578;9.760;2023-02-12T17:53:27;12.95;;;9.32;;
56427;SDS011;42331;53.578;9.760;2023-02-12T17:55:58;15.55;;;10.13;;
56427;SDS011;42331;53.578;9.760;2023-02-12T17:58:29;14.15;;;9.75;;
56427;SDS011;42331;53.578;9.760;2023-02-12T18:01:04;15.40;;;10.15;;
56427;SDS011;42331;53.578;9.760;2023-02-12T18:03:39;15.98;;;11.30;;
56427;SDS011;42331;53.578;9.760;2023-02-12T18:06:10;19.77;;;12.40;;
56427;SDS011;42331;53.578;9.760;2023-02-12T18:08:43;18.88;;;12.40;;
56427;SDS011;42331;53.578;9.760;2023-02-12T18:11:14;19.42;;;13.23;;
56427;SDS011;42331;53.578;9.760;2023-02-12T18:13:44;16.13;;;11.15;;
56427;SDS011;42331;53.578;9.760;2023-02-12T18:16:15;15.25;;;10.70;;
56427;SDS011;42331;53.578;9.760;2023-02-12T18:18:46;19.67;;;12.20;;
56427;SDS011;42331;53.578;9.760;2023-02-12T18:21:17;17.97;;;12.40;;
56427;SDS011;42331;53.578;9.760;2023-02-12T18:23:48;20.80;;;11.65;;
56427;SDS011;42331;53.578;9.760;2023-02-12T18:26:19;21.45;;;12.45;;
56427;SDS011;42331;53.578;9.760;2023-02-12T18:28:50;18.38;;;11.40;;
56427;SDS011;42331;53.578;9.760;2023-02-12T18:31:22;19.50;;;12.90;;
56427;SDS011;42331;53.578;9.760;2023-02-12T18:33:54;16.95;;;11.63;;
56427;SDS011;42331;53.578;9.760;2023-02-12T18:36:25;21.55;;;13.20;;
56427;SDS011;42331;53.578;9.760;2023-02-12T18:38:55;20.05;;;11.98;;